Time;durP1;ratioP1;P1;durP2;ratioP2;P2;SDS_P1;SDS_P2;PMS_P1;PMS_P2;Temp;Humidity;BMP_temperature;BMP_pressure;BME280_temperature;BME280_humidity;BME280_pressure;Samples;Min_cycle;Max_cycle;Signal;HPM_P1;HPM_P2
2023/12/07 00:01:45;;;;;;;0.90;0.90;;;1.20;99.90;;;;;;5001129;28;20190;-83
2023/12/07 00:04:11;;;;;;;0.80;0.80;;;1.30;99.90;;;;;;5019201;28;20240;-83
2023/12/07 00:06:36;;;;;;;0.90;0.90;;;1.20;99.90;;;;;;5023939;28;20226;-80
2023/12/07 00:09:02;;;;;;;1.00;1.00;;;1.30;99.90;;;;;;5039032;28;20172;-81
2023/12/07 00:11:28;;;;;;;1.00;1.00;;;1.30;99.90;;;;;;5039085;28;20252;-80
2023/12/07 00:13:53;;;;;;;0.80;0.80;;;1.30;99.90;;;;;;5038831;28;20212;-81
2023/12/07 00:16:19;;;;;;;0.80;0.80;;;1.40;99.90;;;;;;5037587;28;20192;-82
2023/12/07 00:18:45;;;;;;;0.90;0.90;;;1.40;99.90;;;;;;5016690;28;20180;-82
2023/12/07 00:21:10;;;;;;;0.80;0.80;;;1.30;99.90;;;;;;5017068;28;20230;-83
2023/12/07 00:23:37;;;;;;;0.80;0.80;;;1.30;99.90;;;;;;5016599;28;20279;-83
2023/12/07 00:26:05;;;;;;;0.70;0.70;;;1.40;99.90;;;;;;5016725;28;20196;-82
2023/12/07 00:28:30;;;;;;;0.80;0.80;;;1.40;99.90;;;;;;5017192;28;20172;-83
2023/12/07 00:30:56;;;;;;;0.80;0.80;;;1.30;99.90;;;;;;5017101;28;20639;-83
2023/12/07 00:33:22;;;;;;;0.80;0.80;;;1.40;99.90;;;;;;5016955;28;20278;-82
2023/12/07 00:35:48;;;;;;;0.90;0.90;;;1.40;99.90;;;;;;5016321;28;20189;-83
2023/12/07 00:38:14;;;;;;;0.80;0.80;;;1.40;99.90;;;;;;5016795;28;20544;-83
2023/12/07 00:40:40;;;;;;;0.70;0.70;;;1.40;99.90;;;;;;5016578;28;20184;-83
2023/12/07 00:43:09;;;;;;;0.70;0.70;;;1.30;99.90;;;;;;5016131;28;20180;-82
2023/12/07 00:45:35;;;;;;;0.90;0.90;;;1.30;99.90;;;;;;5015185;28;20188;-83
2023/12/07 00:48:00;;;;;;;0.80;0.80;;;1.30;99.90;;;;;;4998191;28;20527;-83
2023/12/07 00:50:26;;;;;;;0.97;0.97;;;1.30;99.90;;;;;;5016848;28;20187;-83
2023/12/07 00:52:51;;;;;;;0.90;0.90;;;1.20;99.90;;;;;;5016230;28;20247;-83
2023/12/07 00:55:17;;;;;;;0.80;0.80;;;1.30;99.90;;;;;;4997711;28;20188;-82
2023/12/07 00:57:43;;;;;;;0.90;0.90;;;1.30;99.90;;;;;;5016803;28;20211;-83
2023/12/07 01:00:10;;;;;;;0.83;0.83;;;1.30;99.90;;;;;;5016749;28;20235;-83
2023/12/07 01:02:36;;;;;;;0.90;0.90;;;1.20;99.90;;;;;;5016571;28;20181;-83
2023/12/07 01:05:01;;;;;;;0.83;0.83;;;1.10;99.90;;;;;;5015920;28;20525;-84
2023/12/07 01:07:27;;;;;;;0.87;0.87;;;1.10;99.90;;;;;;5016052;28;20304;-83
2023/12/07 01:09:52;;;;;;;0.80;0.80;;;1.10;99.90;;;;;;5016095;28;20176;-83
2023/12/07 01:12:20;;;;;;;0.90;0.90;;;1.10;99.90;;;;;;5016548;28;20204;-83
2023/12/07 01:14:45;;;;;;;0.80;0.80;;;1.20;99.90;;;;;;4998904;28;20637;-83
2023/12/07 01:17:11;;;;;;;0.80;0.80;;;1.20;99.90;;;;;;4998383;28;20255;-82
2023/12/07 01:19:36;;;;;;;0.90;0.90;;;1.20;99.90;;;;;;5016899;28;20176;-81
2023/12/07 01:22:02;;;;;;;0.80;0.80;;;1.30;99.90;;;;;;5016138;28;20179;-82
2023/12/07 01:24:29;;;;;;;0.80;0.80;;;1.30;99.90;;;;;;5016376;28;20264;-83
2023/12/07 01:26:54;;;;;;;0.80;0.80;;;1.30;99.90;;;;;;5015919;28;20188;-83
2023/12/07 01:29:21;;;;;;;0.90;0.90;;;1.50;99.90;;;;;;4998170;28;20183;-82
2023/12/07 01:31:47;;;;;;;0.80;0.80;;;1.40;99.90;;;;;;5017039;28;20184;-82
2023/12/07 01:34:12;;;;;;;0.87;0.87;;;1.40;99.90;;;;;;5016541;28;20212;-83
2023/12/07 01:36:38;;;;;;;0.80;0.80;;;1.40;99.90;;;;;;5016669;28;20295;-83
2023/12/07 01:39:04;;;;;;;0.70;0.70;;;1.40;99.90;;;;;;5016574;28;20621;-82
2023/12/07 01:41:30;;;;;;;0.90;0.90;;;1.40;99.90;;;;;;5015614;28;20180;-83
2023/12/07 01:43:55;;;;;;;0.70;0.70;;;1.40;99.90;;;;;;5016310;28;20594;-82
2023/12/07 01:46:21;;;;;;;0.70;0.70;;;1.40;99.90;;;;;;4997752;28;20196;-83
2023/12/07 01:48:49;;;;;;;0.80;0.80;;;1.20;99.90;;;;;;5018190;28;20176;-82
2023/12/07 01:51:15;;;;;;;0.80;0.80;;;1.20;99.90;;;;;;5016794;28;20164;-83
2023/12/07 01:53:40;;;;;;;1.00;1.00;;;1.10;99.90;;;;;;5016734;28;20211;-83
2023/12/07 01:56:08;;;;;;;0.90;0.90;;;1.00;99.90;;;;;;5018021;28;20223;-82
2023/12/07 01:58:34;;;;;;;0.80;0.80;;;1.00;99.90;;;;;;5020859;28;20184;-82
2023/12/07 02:01:00;;;;;;;0.80;0.80;;;1.00;99.90;;;;;;5021006;28;20263;-83
2023/12/07 02:03:27;;;;;;;0.80;0.80;;;0.90;99.90;;;;;;5020243;28;20177;-83
2023/12/07 02:05:53;;;;;;;0.90;0.90;;;0.80;99.90;;;;;;5020674;28;20192;-83
2023/12/07 02:08:18;;;;;;;0.80;0.80;;;0.70;99.90;;;;;;5026113;28;20195;-82
2023/12/07 02:10:44;;;;;;;0.80;0.80;;;0.80;99.90;;;;;;5036817;28;20219;-81
2023/12/07 02:13:10;;;;;;;0.90;0.90;;;0.80;99.90;;;;;;5034825;28;20211;-81
2023/12/07 02:15:36;;;;;;;0.80;0.80;;;0.80;99.90;;;;;;5035006;28;20211;-81
2023/12/07 02:18:04;;;;;;;0.80;0.80;;;0.90;99.90;;;;;;5021526;28;20183;-81
2023/12/07 02:20:39;;;;;;;0.80;0.80;;;0.90;99.90;;;;;;5003174;28;20187;-82
2023/12/07 02:23:07;;;;;;;0.90;0.90;;;0.80;99.90;;;;;;5022242;28;20192;-83
2023/12/07 02:25:57;;;;;;;0.83;0.83;;;0.70;99.90;;;;;;5031766;28;20188;-82
2023/12/07 02:28:22;;;;;;;0.80;0.80;;;0.70;99.90;;;;;;5035218;28;20176;-82
2023/12/07 02:30:48;;;;;;;0.90;0.90;;;0.70;99.90;;;;;;5032236;28;20199;-82
2023/12/07 02:33:14;;;;;;;0.80;0.80;;;0.70;99.90;;;;;;5024480;28;20619;-83
2023/12/07 02:35:40;;;;;;;0.90;0.90;;;0.60;99.90;;;;;;5021016;28;20200;-83
2023/12/07 02:38:07;;;;;;;0.90;0.90;;;0.50;99.90;;;;;;5003828;28;20180;-83
2023/12/07 02:40:34;;;;;;;0.90;0.90;;;0.50;99.90;;;;;;5021391;28;20198;-82
2023/12/07 02:43:01;;;;;;;0.80;0.80;;;0.40;99.90;;;;;;5020682;28;20207;-83
2023/12/07 02:45:27;;;;;;;0.90;0.90;;;0.50;99.90;;;;;;5019989;28;20227;-82
2023/12/07 02:47:53;;;;;;;0.90;0.90;;;0.40;99.90;;;;;;5021771;28;20177;-83
2023/12/07 02:50:18;;;;;;;0.80;0.80;;;0.30;99.90;;;;;;5021596;28;20651;-82
2023/12/07 02:52:44;;;;;;;0.90;0.90;;;0.20;99.90;;;;;;5020809;28;20706;-83
2023/12/07 02:55:10;;;;;;;0.90;0.90;;;0.20;99.90;;;;;;5020645;28;20191;-82
2023/12/07 02:57:35;;;;;;;0.90;0.90;;;0.10;99.90;;;;;;5020184;28;20183;-83
2023/12/07 03:00:08;;;;;;;1.00;1.00;;;0.00;99.90;;;;;;5022057;28;20252;-82
2023/12/07 03:02:39;;;;;;;0.80;0.80;;;0.00;99.90;;;;;;5033425;28;20200;-81
2023/12/07 03:05:05;;;;;;;1.00;1.00;;;0.00;99.90;;;;;;5032373;28;20173;-82
2023/12/07 03:07:31;;;;;;;1.00;1.00;;;-0.10;99.90;;;;;;5025461;28;20517;-83
2023/12/07 03:09:58;;;;;;;0.90;0.90;;;-0.10;99.90;;;;;;5018918;28;20169;-83
2023/12/07 03:12:23;;;;;;;0.93;0.93;;;-0.10;99.90;;;;;;5019059;28;20223;-83
2023/12/07 03:14:49;;;;;;;0.90;0.90;;;-0.20;99.90;;;;;;5018514;28;20256;-83
2023/12/07 03:17:16;;;;;;;0.90;0.90;;;-0.20;99.90;;;;;;5018211;28;20283;-82
2023/12/07 03:19:42;;;;;;;0.90;0.90;;;-0.20;99.90;;;;;;5018703;28;20177;-82
2023/12/07 03:22:08;;;;;;;0.90;0.90;;;-0.20;99.90;;;;;;5018085;28;20183;-83
2023/12/07 03:24:38;;;;;;;0.80;0.80;;;-0.30;99.90;;;;;;5018362;28;20176;-81
2023/12/07 03:27:04;;;;;;;0.80;0.80;;;-0.40;99.90;;;;;;5017642;28;20224;-82
2023/12/07 03:29:32;;;;;;;0.90;0.90;;;-0.50;99.90;;;;;;5016954;28;20678;-83
2023/12/07 03:31:57;;;;;;;0.90;0.90;;;-0.50;99.90;;;;;;5017587;28;20181;-82
2023/12/07 03:34:24;;;;;;;0.90;0.90;;;-1.20;99.90;;;;;;5017635;28;20331;-83
2023/12/07 03:36:50;;;;;;;0.90;0.90;;;-0.40;99.90;;;;;;5020931;28;20725;-81
2023/12/07 03:39:25;;;;;;;0.80;0.80;;;-0.40;99.90;;;;;;5034326;28;20173;-82
2023/12/07 03:41:51;;;;;;;0.70;0.70;;;-0.40;99.90;;;;;;5025408;28;20168;-83
2023/12/07 03:44:17;;;;;;;1.00;1.00;;;-0.40;99.90;;;;;;5001134;28;20207;-83
2023/12/07 03:46:42;;;;;;;0.90;0.90;;;-0.50;99.90;;;;;;5018362;28;20218;-83
2023/12/07 03:49:08;;;;;;;0.90;0.90;;;-0.60;99.90;;;;;;5001499;28;20192;-83
2023/12/07 03:51:36;;;;;;;0.90;0.90;;;-0.70;99.90;;;;;;5018842;28;20172;-83
2023/12/07 03:54:01;;;;;;;1.00;1.00;;;-0.70;99.90;;;;;;5018291;28;20577;-82
2023/12/07 03:56:29;;;;;;;1.00;1.00;;;-0.60;99.90;;;;;;5018135;28;20693;-82
2023/12/07 03:58:56;;;;;;;0.80;0.80;;;-0.80;99.90;;;;;;5019032;28;20184;-83
2023/12/07 04:01:24;;;;;;;0.90;0.90;;;-0.80;99.90;;;;;;5017562;28;20188;-82
2023/12/07 04:03:53;;;;;;;0.90;0.90;;;-0.70;99.90;;;;;;5017827;28;20720;-83
2023/12/07 04:06:20;;;;;;;0.83;0.83;;;-0.70;99.90;;;;;;5017395;28;20208;-83
2023/12/07 04:08:46;;;;;;;0.93;0.93;;;-0.70;99.90;;;;;;5018299;28;20169;-83
2023/12/07 04:11:12;;;;;;;0.90;0.90;;;-0.80;99.90;;;;;;5018107;28;20181;-83
2023/12/07 04:13:39;;;;;;;0.97;0.97;;;-0.80;99.90;;;;;;5017381;28;20678;-83
2023/12/07 04:16:05;;;;;;;0.90;0.90;;;-0.80;99.90;;;;;;5017699;28;20287;-83
2023/12/07 04:18:31;;;;;;;0.90;0.90;;;-0.80;99.90;;;;;;5017076;28;20180;-83
2023/12/07 04:20:56;;;;;;;0.90;0.90;;;-0.80;99.90;;;;;;5017917;28;20549;-83
2023/12/07 04:23:22;;;;;;;0.80;0.80;;;-0.90;99.90;;;;;;5025696;28;20211;-80
2023/12/07 04:25:47;;;;;;;0.90;0.90;;;-0.80;99.90;;;;;;5038794;28;20187;-81
2023/12/07 04:28:13;;;;;;;0.90;0.90;;;-0.80;99.90;;;;;;5039312;28;20180;-80
2023/12/07 04:30:39;;;;;;;0.87;0.87;;;-0.80;99.90;;;;;;5039044;28;20164;-79
2023/12/07 04:33:04;;;;;;;0.90;0.90;;;-0.80;99.90;;;;;;5038848;28;20243;-81
2023/12/07 04:35:30;;;;;;;0.80;0.80;;;-0.80;99.90;;;;;;5038455;28;20189;-83
2023/12/07 04:37:56;;;;;;;0.90;0.90;;;-0.80;99.90;;;;;;5038701;28;20179;-80
2023/12/07 04:40:21;;;;;;;0.83;0.83;;;-0.80;99.90;;;;;;5038669;28;20165;-83
2023/12/07 04:42:47;;;;;;;0.90;0.90;;;-0.80;99.90;;;;;;5038601;28;20199;-81
2023/12/07 04:45:12;;;;;;;0.80;0.80;;;-0.80;99.90;;;;;;5027418;28;20184;-84
2023/12/07 04:47:38;;;;;;;0.90;0.90;;;-0.90;99.90;;;;;;5016796;28;20180;-83
2023/12/07 04:50:05;;;;;;;1.00;1.00;;;-0.80;99.90;;;;;;5017018;28;20260;-85
2023/12/07 04:52:30;;;;;;;0.90;0.90;;;-0.80;99.90;;;;;;5016743;28;20278;-85
2023/12/07 04:54:56;;;;;;;0.80;0.80;;;-0.80;99.90;;;;;;5016879;28;20176;-85
2023/12/07 04:57:21;;;;;;;0.90;0.90;;;-0.80;99.90;;;;;;5019490;28;20247;-83
2023/12/07 04:59:47;;;;;;;0.90;0.90;;;-0.80;99.90;;;;;;5020058;28;20550;-83
2023/12/07 05:02:14;;;;;;;1.00;1.00;;;-0.80;99.90;;;;;;5019406;28;20378;-84
2023/12/07 05:04:40;;;;;;;0.90;0.90;;;-0.70;99.90;;;;;;5019417;28;20588;-85
2023/12/07 05:07:05;;;;;;;0.90;0.90;;;-0.70;99.90;;;;;;5019010;28;20219;-84
2023/12/07 05:09:31;;;;;;;0.90;0.90;;;-0.60;99.90;;;;;;5019505;28;20792;-84
2023/12/07 05:11:58;;;;;;;0.90;0.90;;;-0.60;99.90;;;;;;5018662;28;20181;-85
2023/12/07 05:14:23;;;;;;;0.90;0.90;;;-0.60;99.90;;;;;;5001267;28;20238;-84
2023/12/07 05:16:52;;;;;;;0.90;0.90;;;-0.60;99.90;;;;;;5018250;28;20192;-83
2023/12/07 05:19:25;;;;;;;0.90;0.90;;;-0.70;99.90;;;;;;5019237;28;20191;-84
2023/12/07 05:21:52;;;;;;;0.90;0.90;;;-0.70;99.90;;;;;;5019889;28;20175;-84
2023/12/07 05:24:18;;;;;;;0.90;0.90;;;-0.60;99.90;;;;;;5020032;28;20208;-83
2023/12/07 05:26:46;;;;;;;0.90;0.90;;;-0.60;99.90;;;;;;5018614;28;20232;-85
2023/12/07 05:29:13;;;;;;;0.80;0.80;;;-0.60;99.90;;;;;;5018348;28;20180;-85
2023/12/07 05:31:39;;;;;;;0.90;0.90;;;-0.70;99.90;;;;;;5019236;28;20650;-85
2023/12/07 05:34:05;;;;;;;0.90;0.90;;;-0.70;99.90;;;;;;5018854;28;20583;-85
2023/12/07 05:36:31;;;;;;;0.90;0.90;;;-0.70;99.90;;;;;;5018270;28;20196;-85
2023/12/07 05:38:56;;;;;;;1.00;1.00;;;-0.70;99.90;;;;;;5019340;28;20176;-85
2023/12/07 05:41:22;;;;;;;0.90;0.90;;;-0.80;99.90;;;;;;5019105;28;20187;-85
2023/12/07 05:43:48;;;;;;;0.90;0.90;;;-0.80;99.90;;;;;;5018872;28;20173;-84
2023/12/07 05:46:13;;;;;;;0.90;0.90;;;-0.90;99.90;;;;;;5017851;28;20204;-84
2023/12/07 05:48:39;;;;;;;1.00;1.00;;;-0.90;99.90;;;;;;5000948;28;20552;-85
2023/12/07 05:51:05;;;;;;;1.00;1.00;;;-1.00;99.90;;;;;;5018491;28;20605;-85
2023/12/07 05:53:32;;;;;;;0.90;0.90;;;-1.00;99.90;;;;;;5018297;28;20234;-85
2023/12/07 05:55:58;;;;;;;0.80;0.80;;;-1.00;99.90;;;;;;5018624;28;20204;-84
2023/12/07 05:58:24;;;;;;;0.80;0.80;;;-1.10;99.90;;;;;;5019238;28;20180;-85
2023/12/07 06:00:50;;;;;;;0.97;0.97;;;-1.10;99.90;;;;;;5022280;28;20219;-84
2023/12/07 06:03:16;;;;;;;0.90;0.90;;;-1.10;99.90;;;;;;5026738;28;20192;-84
2023/12/07 06:05:42;;;;;;;0.80;0.80;;;-1.20;99.90;;;;;;5027437;28;20189;-83
2023/12/07 06:08:08;;;;;;;0.90;0.90;;;-1.20;99.90;;;;;;5019596;28;20296;-84
2023/12/07 06:10:35;;;;;;;0.90;0.90;;;-1.30;99.90;;;;;;5019584;28;20184;-83
2023/12/07 06:13:01;;;;;;;0.87;0.87;;;-1.30;99.90;;;;;;5036209;28;20200;-83
2023/12/07 06:15:27;;;;;;;0.90;0.90;;;-1.30;99.90;;;;;;5036745;28;20208;-82
2023/12/07 06:17:54;;;;;;;0.80;0.80;;;-1.40;99.90;;;;;;5037430;28;20175;-83
2023/12/07 06:20:21;;;;;;;0.90;0.90;;;-1.40;99.90;;;;;;5037662;28;20187;-82
2023/12/07 06:22:46;;;;;;;0.90;0.90;;;-1.40;99.90;;;;;;5004508;28;20650;-85
2023/12/07 06:25:12;;;;;;;0.90;0.90;;;-1.30;99.90;;;;;;5018946;28;20180;-84
2023/12/07 06:27:38;;;;;;;0.87;0.87;;;-1.30;99.90;;;;;;5017941;28;20717;-84
2023/12/07 06:30:08;;;;;;;1.00;1.00;;;-1.30;99.90;;;;;;5017232;28;20180;-84
2023/12/07 06:32:34;;;;;;;0.90;0.90;;;-1.40;99.90;;;;;;5017139;28;20702;-83
2023/12/07 06:35:00;;;;;;;0.90;0.90;;;-1.40;99.90;;;;;;4999523;28;20183;-83
2023/12/07 06:37:26;;;;;;;0.93;0.93;;;-1.40;99.90;;;;;;5000079;28;20255;-83
2023/12/07 06:39:52;;;;;;;0.90;0.90;;;-1.50;99.90;;;;;;5017678;28;20176;-85
2023/12/07 06:42:18;;;;;;;0.90;0.90;;;-1.50;99.90;;;;;;5019145;28;20176;-85
2023/12/07 06:44:47;;;;;;;1.00;1.00;;;-1.60;99.90;;;;;;5015456;28;20692;-84
2023/12/07 06:47:12;;;;;;;0.90;0.90;;;-1.60;99.90;;;;;;5011987;28;20196;-83
2023/12/07 06:49:38;;;;;;;0.90;0.90;;;-1.60;99.90;;;;;;5021028;28;20180;-84
2023/12/07 06:52:04;;;;;;;0.90;0.90;;;-1.60;99.90;;;;;;5021854;28;20238;-83
2023/12/07 06:54:29;;;;;;;0.90;0.90;;;-1.20;99.90;;;;;;5022489;28;20291;-86
2023/12/07 06:56:55;;;;;;;0.90;0.90;;;-1.60;99.90;;;;;;5022023;28;20227;-84
2023/12/07 06:59:21;;;;;;;0.90;0.90;;;-1.60;99.90;;;;;;5020678;28;20180;-84
2023/12/07 07:01:46;;;;;;;0.90;0.90;;;-1.60;99.90;;;;;;4999352;28;20555;-82
2023/12/07 07:04:13;;;;;;;1.00;1.00;;;-1.60;99.90;;;;;;5020437;28;20184;-86
2023/12/07 07:06:41;;;;;;;1.00;1.00;;;-1.60;99.90;;;;;;5020967;28;20220;-82
2023/12/07 07:09:06;;;;;;;1.00;1.00;;;-1.50;99.90;;;;;;5021661;28;20180;-81
2023/12/07 07:11:32;;;;;;;0.90;0.90;;;-1.50;99.90;;;;;;5018619;28;20199;-85
2023/12/07 07:13:57;;;;;;;0.97;0.97;;;-1.40;99.90;;;;;;5019916;28;20211;-84
2023/12/07 07:16:23;;;;;;;0.90;0.90;;;-1.40;99.90;;;;;;5019586;28;20201;-84
2023/12/07 07:18:49;;;;;;;0.90;0.90;;;-1.40;99.90;;;;;;5020059;28;20208;-84
2023/12/07 07:21:14;;;;;;;1.00;1.00;;;-1.40;99.90;;;;;;5019948;28;20722;-84
2023/12/07 07:23:40;;;;;;;0.90;0.90;;;-1.20;99.90;;;;;;5019087;28;20177;-85
2023/12/07 07:26:05;;;;;;;0.90;0.90;;;-0.80;99.90;;;;;;5019537;28;20188;-85
2023/12/07 07:28:31;;;;;;;0.90;0.90;;;-0.50;99.90;;;;;;5019622;28;20175;-85
2023/12/07 07:30:57;;;;;;;1.00;1.00;;;-0.30;99.90;;;;;;5020142;28;20173;-85
2023/12/07 07:33:22;;;;;;;0.90;0.90;;;0.20;99.90;;;;;;5020597;28;20698;-86
2023/12/07 07:35:49;;;;;;;0.80;0.80;;;0.80;99.90;;;;;;5021144;28;20205;-84
2023/12/07 07:38:14;;;;;;;0.70;0.70;;;1.30;99.90;;;;;;5021635;28;20227;-84
2023/12/07 07:40:41;;;;;;;0.80;0.80;;;1.50;37.20;;;;;;5020716;28;20172;-85
2023/12/07 07:43:07;;;;;;;0.70;0.70;;;1.90;1.00;;;;;;5020216;28;20169;-83
2023/12/07 07:45:36;;;;;;;0.80;0.80;;;1.90;1.00;;;;;;5019543;28;20201;-84
2023/12/07 07:48:01;;;;;;;0.70;0.70;;;1.50;1.00;;;;;;5019202;28;20168;-84
2023/12/07 07:50:28;;;;;;;0.70;0.70;;;0.10;1.00;;;;;;5020063;28;20173;-85
2023/12/07 07:52:55;;;;;;;0.70;0.70;;;-0.40;1.00;;;;;;5030112;28;20206;-83
2023/12/07 07:55:20;;;;;;;0.87;0.87;;;0.30;63.00;;;;;;5030957;28;20173;-81
2023/12/07 07:57:47;;;;;;;0.73;0.73;;;1.90;2.50;;;;;;5038021;28;20610;-83
2023/12/07 08:00:13;;;;;;;0.80;0.80;;;2.30;1.00;;;;;;5037526;28;20177;-82
2023/12/07 08:02:39;;;;;;;0.60;0.60;;;3.10;1.00;;;;;;5033457;28;20200;-86
2023/12/07 08:05:05;;;;;;;0.70;0.70;;;3.90;1.00;;;;;;5015197;28;20188;-81
2023/12/07 08:07:31;;;;;;;0.60;0.60;;;3.90;99.90;;;;;;5017677;28;20260;-83
2023/12/07 08:09:56;;;;;;;0.70;0.70;;;4.60;37.20;;;;;;5018475;28;20212;-85
2023/12/07 08:12:25;;;;;;;0.70;0.70;;;5.20;99.90;;;;;;5023381;28;20714;-86
2023/12/07 08:14:50;;;;;;;0.60;0.60;;;5.50;38.10;;;;;;5017548;28;20177;-85
2023/12/07 08:17:16;;;;;;;0.50;0.50;;;5.70;1.00;;;;;;5018740;28;20203;-86
2023/12/07 08:19:43;;;;;;;0.60;0.60;;;5.80;1.00;;;;;;5020676;28;20232;-86
2023/12/07 08:22:17;;;;;;;0.40;0.40;;;6.30;99.90;;;;;;5019454;28;20180;-84
2023/12/07 08:24:43;;;;;;;0.50;0.50;;;6.50;99.90;;;;;;5023543;28;20223;-85
2023/12/07 08:27:08;;;;;;;0.50;0.50;;;6.70;55.60;;;;;;5022590;28;20197;-87
2023/12/07 08:29:34;;;;;;;0.50;0.50;;;7.20;13.80;;;;;;5023388;28;20177;-85
2023/12/07 08:32:00;;;;;;;0.50;0.50;;;6.70;36.80;;;;;;5021682;28;20173;-85
2023/12/07 08:34:26;;;;;;;0.70;0.70;;;5.60;99.90;;;;;;5021410;28;20775;-83
2023/12/07 08:36:51;;;;;;;0.50;0.50;;;5.20;1.00;;;;;;5021893;28;20204;-84
2023/12/07 08:39:18;;;;;;;0.57;0.57;;;5.20;1.00;;;;;;5018773;28;20199;-86
2023/12/07 08:41:43;;;;;;;0.50;0.50;;;4.80;1.00;;;;;;5017804;28;20538;-84
2023/12/07 08:44:09;;;;;;;0.40;0.40;;;5.00;1.00;;;;;;5017966;28;20187;-83
2023/12/07 08:46:34;;;;;;;0.50;0.50;;;4.90;99.90;;;;;;5017295;28;20223;-85
2023/12/07 08:49:01;;;;;;;0.50;0.50;;;4.90;99.90;;;;;;5017062;28;20177;-86
2023/12/07 08:51:27;;;;;;;0.50;0.50;;;5.10;1.00;;;;;;5018439;28;20176;-85
2023/12/07 08:53:53;;;;;;;0.40;0.40;;;6.30;1.00;;;;;;5017321;28;20207;-85
2023/12/07 08:56:19;;;;;;;0.40;0.40;;;7.90;46.90;;;;;;5017314;28;20257;-85
2023/12/07 08:58:46;;;;;;;0.40;0.40;;;8.70;1.00;;;;;;5017283;28;20654;-85
2023/12/07 09:01:12;;;;;;;0.30;0.30;;;9.10;1.00;;;;;;5017920;28;20180;-85
2023/12/07 09:03:37;;;;;;;0.30;0.30;;;9.50;1.00;;;;;;5018551;28;20185;-84
2023/12/07 09:06:05;;;;;;;0.30;0.30;;;9.90;1.00;;;;;;5018557;28;20759;-85
2023/12/07 09:08:30;;;;;;;0.40;0.40;;;9.70;1.00;;;;;;5019119;28;20267;-84
2023/12/07 09:10:56;;;;;;;0.30;0.30;;;9.80;1.00;;;;;;5000365;28;20200;-86
2023/12/07 09:13:21;;;;;;;0.40;0.40;;;10.50;1.00;;;;;;5000713;28;20208;-87
2023/12/07 09:15:47;;;;;;;0.30;0.30;;;10.20;1.00;;;;;;5018077;28;20204;-87
2023/12/07 09:18:12;;;;;;;0.40;0.40;;;10.80;1.00;;;;;;5016272;28;20196;-89
2023/12/07 09:20:45;;;;;;;0.30;0.30;;;10.30;1.00;;;;;;5015927;28;20184;-88
2023/12/07 09:23:12;;;;;;;0.30;0.30;;;10.50;1.00;;;;;;4999753;28;20728;-88
2023/12/07 09:25:38;;;;;;;0.30;0.30;;;10.70;1.00;;;;;;4998445;28;20220;-88
2023/12/07 09:28:05;;;;;;;0.40;0.40;;;10.50;1.00;;;;;;5016737;28;20642;-87
2023/12/07 09:30:33;;;;;;;0.50;0.50;;;10.50;1.00;;;;;;4998892;28;20203;-88
2023/12/07 09:32:59;;;;;;;0.40;0.40;;;10.20;1.00;;;;;;5017038;28;20196;-88
2023/12/07 09:35:25;;;;;;;0.40;0.40;;;9.80;1.00;;;;;;5014075;28;20701;-87
2023/12/07 09:37:50;;;;;;;0.30;0.30;;;10.40;1.00;;;;;;5014903;28;20176;-89
2023/12/07 09:40:17;;;;;;;0.30;0.30;;;10.60;1.00;;;;;;5016525;28;20199;-89
2023/12/07 09:42:44;;;;;;;0.40;0.40;;;11.10;1.00;;;;;;5017108;28;20180;-87
2023/12/07 09:45:10;;;;;;;0.40;0.40;;;10.80;1.00;;;;;;5016827;28;20596;-88
2023/12/07 09:47:38;;;;;;;0.33;0.33;;;10.50;1.00;;;;;;5017111;28;20184;-87
2023/12/07 09:50:10;;;;;;;0.40;0.40;;;11.10;1.00;;;;;;5017126;28;20610;-87
2023/12/07 09:52:36;;;;;;;0.50;0.50;;;11.10;1.00;;;;;;5016279;28;20263;-88
2023/12/07 09:55:03;;;;;;;0.40;0.40;;;11.30;1.00;;;;;;5015394;28;20643;-88
2023/12/07 09:57:28;;;;;;;0.40;0.40;;;11.30;1.00;;;;;;5014823;28;20192;-86
2023/12/07 09:59:55;;;;;;;0.40;0.40;;;11.60;1.00;;;;;;4998285;28;20173;-87
2023/12/07 10:02:23;;;;;;;0.30;0.30;;;12.10;1.00;;;;;;5015586;28;20191;-86
2023/12/07 10:05:04;;;;;;;0.40;0.40;;;11.70;1.00;;;;;;5015492;28;20180;-86
2023/12/07 10:07:37;;;;;;;0.37;0.37;;;12.10;1.00;;;;;;5013860;28;20208;-86
2023/12/07 10:10:04;;;;;;;0.27;0.27;;;11.60;1.00;;;;;;5015926;28;20176;-86
2023/12/07 10:12:30;;;;;;;0.40;0.40;;;11.70;1.00;;;;;;5016757;28;20183;-86
2023/12/07 10:14:56;;;;;;;0.40;0.40;;;11.70;1.00;;;;;;5015894;28;20196;-86
2023/12/07 10:17:21;;;;;;;0.40;0.40;;;11.70;1.00;;;;;;5016132;28;20203;-86
2023/12/07 10:20:08;;;;;;;0.40;0.40;;;11.80;1.00;;;;;;5018649;28;20172;-87
2023/12/07 10:22:34;;;;;;;0.40;0.40;;;11.60;1.00;;;;;;5021142;28;20672;-84
2023/12/07 10:25:00;;;;;;;0.40;0.40;;;12.30;1.00;;;;;;5019240;28;20224;-85
2023/12/07 10:27:28;;;;;;;0.40;0.40;;;11.50;1.00;;;;;;5018223;28;20208;-84
2023/12/07 10:29:53;;;;;;;0.30;0.30;;;11.90;1.00;;;;;;5020278;28;20185;-85
2023/12/07 10:32:21;;;;;;;0.30;0.30;;;13.40;1.00;;;;;;5020194;28;20736;-84
2023/12/07 10:34:46;;;;;;;0.40;0.40;;;11.60;1.00;;;;;;5020622;28;20202;-82
2023/12/07 10:37:12;;;;;;;0.40;0.40;;;11.30;1.00;;;;;;5002555;28;20296;-84
2023/12/07 10:39:37;;;;;;;0.40;0.40;;;11.60;1.00;;;;;;5021850;28;20176;-85
2023/12/07 10:42:12;;;;;;;0.40;0.40;;;11.10;1.00;;;;;;5021893;28;20255;-84
2023/12/07 10:44:41;;;;;;;0.50;0.50;;;11.00;1.00;;;;;;5021998;28;20563;-84
2023/12/07 10:47:10;;;;;;;0.30;0.30;;;9.60;1.00;;;;;;5025090;28;20205;-85
2023/12/07 10:49:38;;;;;;;0.40;0.40;;;9.10;1.00;;;;;;5022841;28;20188;-85
2023/12/07 10:52:07;;;;;;;0.50;0.50;;;8.90;1.00;;;;;;5021153;28;20270;-85
2023/12/07 10:54:43;;;;;;;0.40;0.40;;;8.80;1.00;;;;;;5000571;28;20217;-84
2023/12/07 10:57:11;;;;;;;0.30;0.30;;;9.80;1.00;;;;;;5009186;28;20294;-84
2023/12/07 10:59:39;;;;;;;0.40;0.40;;;11.10;1.00;;;;;;5034708;28;20196;-86
2023/12/07 11:02:07;;;;;;;0.40;0.40;;;11.20;1.00;;;;;;5021180;28;20192;-85
2023/12/07 11:04:32;;;;;;;0.40;0.40;;;11.90;1.00;;;;;;5048640;28;20168;-86
2023/12/07 11:07:09;;;;;;;0.30;0.30;;;12.40;1.00;;;;;;5041935;28;20200;-85
2023/12/07 11:09:44;;;;;;;0.40;0.40;;;12.80;1.00;;;;;;5042514;28;20184;-85
2023/12/07 11:12:20;;;;;;;0.40;0.40;;;13.60;1.00;;;;;;5023635;28;20239;-84
2023/12/07 11:14:46;;;;;;;0.30;0.30;;;14.50;1.00;;;;;;5039911;28;20214;-86
2023/12/07 11:17:12;;;;;;;0.30;0.30;;;14.90;1.00;;;;;;5040243;28;20188;-82
2023/12/07 11:19:42;;;;;;;0.40;0.40;;;14.50;1.00;;;;;;5046699;28;20210;-83
2023/12/07 11:22:10;;;;;;;0.40;0.40;;;12.60;1.00;;;;;;5022291;28;20199;-84
2023/12/07 11:24:36;;;;;;;0.37;0.37;;;10.30;1.00;;;;;;5017224;28;20181;-84
2023/12/07 11:27:02;;;;;;;0.40;0.40;;;8.90;1.00;;;;;;5024029;28;20223;-81
2023/12/07 11:29:32;;;;;;;0.40;0.40;;;8.70;1.00;;;;;;5027834;28;20186;-86
2023/12/07 11:32:03;;;;;;;0.40;0.40;;;8.10;1.00;;;;;;5019359;28;20189;-86
2023/12/07 11:34:35;;;;;;;0.37;0.37;;;8.40;1.00;;;;;;5007595;28;20223;-87
2023/12/07 11:37:02;;;;;;;0.40;0.40;;;8.70;1.00;;;;;;5032708;28;20192;-83
2023/12/07 11:39:29;;;;;;;0.40;0.40;;;8.30;1.00;;;;;;5019844;28;20891;-85
2023/12/07 11:41:58;;;;;;;0.50;0.50;;;9.00;1.00;;;;;;5008040;28;20179;-86
2023/12/07 11:44:38;;;;;;;0.50;0.50;;;8.00;1.00;;;;;;5040943;28;20180;-85
2023/12/07 11:47:07;;;;;;;0.50;0.50;;;7.50;1.00;;;;;;5033460;28;20299;-81
2023/12/07 11:49:32;;;;;;;0.60;0.60;;;7.70;1.00;;;;;;5024746;28;20175;-82
2023/12/07 11:52:11;;;;;;;0.60;0.60;;;7.40;1.00;;;;;;5023410;28;20176;-82
2023/12/07 11:54:37;;;;;;;0.70;0.70;;;7.70;1.00;;;;;;5042791;28;20219;-88
2023/12/07 11:57:03;;;;;;;0.70;0.70;;;7.50;1.00;;;;;;5054064;28;20259;-83
2023/12/07 11:59:29;;;;;;;0.70;0.70;;;8.30;1.00;;;;;;5059191;28;20164;-85
2023/12/07 12:01:55;;;;;;;0.57;0.57;;;8.50;1.00;;;;;;5058364;28;20215;-84
2023/12/07 12:04:22;;;;;;;0.60;0.60;;;7.90;1.00;;;;;;5034860;28;20178;-84
2023/12/07 12:06:47;;;;;;;0.70;0.70;;;7.30;1.00;;;;;;5019877;28;20243;-85
2023/12/07 12:09:17;;;;;;;0.60;0.60;;;7.90;1.00;;;;;;5022461;28;20176;-84
2023/12/07 12:11:49;;;;;;;0.80;0.80;;;8.30;1.00;;;;;;5021246;28;20176;-86
2023/12/07 12:14:16;;;;;;;0.70;0.70;;;8.20;1.00;;;;;;5005342;28;20216;-85
2023/12/07 12:16:45;;;;;;;0.60;0.60;;;7.70;1.00;;;;;;5020386;28;20192;-85
2023/12/07 12:19:11;;;;;;;0.70;0.70;;;7.20;1.00;;;;;;5025794;28;20185;-85
2023/12/07 12:21:40;;;;;;;0.67;0.67;;;6.70;1.00;;;;;;5024055;28;20208;-84
2023/12/07 12:24:06;;;;;;;0.60;0.60;;;6.70;1.00;;;;;;5002827;28;20180;-85
2023/12/07 12:26:34;;;;;;;0.60;0.60;;;7.40;1.00;;;;;;5019515;28;20247;-86
2023/12/07 12:29:02;;;;;;;0.70;0.70;;;7.40;1.00;;;;;;5025130;28;20195;-85
2023/12/07 12:31:29;;;;;;;0.80;0.80;;;8.20;1.00;;;;;;5022864;28;20196;-87
2023/12/07 12:33:55;;;;;;;0.70;0.70;;;8.40;1.00;;;;;;5021053;28;20716;-85
2023/12/07 12:36:26;;;;;;;0.60;0.60;;;8.70;1.00;;;;;;5020283;28;20192;-86
2023/12/07 12:38:52;;;;;;;0.70;0.70;;;9.60;1.00;;;;;;5020942;28;20642;-85
2023/12/07 12:41:22;;;;;;;0.70;0.70;;;10.40;1.00;;;;;;5030773;28;20180;-87
2023/12/07 12:44:08;;;;;;;0.60;0.60;;;11.10;1.00;;;;;;5039518;28;20160;-85
2023/12/07 12:46:34;;;;;;;0.50;0.50;;;12.20;1.00;;;;;;5038844;28;20218;-86
2023/12/07 12:49:00;;;;;;;0.50;0.50;;;12.60;1.00;;;;;;5038846;28;20164;-88
2023/12/07 12:51:28;;;;;;;0.60;0.60;;;10.50;1.00;;;;;;5038355;28;20176;-87
2023/12/07 12:53:55;;;;;;;0.60;0.60;;;10.50;1.00;;;;;;5037722;28;20204;-86